sensor_id;sensor_type;location;lat;lon;timestamp;P1;durP1;ratioP1;P2;durP2;ratioP2
34200;SDS011;20469;55.638;37.670;2023-04-06T00:01:44;5.50;;;3.92;;
34200;SDS011;20469;55.638;37.670;2023-04-06T00:04:13;5.22;;;3.67;;
34200;SDS011;20469;55.638;37.670;2023-04-06T00:06:41;5.05;;;3.60;;
34200;SDS011;20469;55.638;37.670;2023-04-06T00:09:09;7.90;;;4.10;;
34200;SDS011;20469;55.638;37.670;2023-04-06T00:11:36;5.95;;;3.53;;
34200;SDS011;20469;55.638;37.670;2023-04-06T00:14:04;8.57;;;4.00;;
34200;SDS011;20469;55.638;37.670;2023-04-06T00:16:31;7.07;;;4.28;;
34200;SDS011;20469;55.638;37.670;2023-04-06T00:18:59;6.80;;;3.72;;
34200;SDS011;20469;55.638;37.670;2023-04-06T00:21:26;4.63;;;3.30;;
34200;SDS011;20469;55.638;37.670;2023-04-06T00:23:54;7.40;;;4.60;;
34200;SDS011;20469;55.638;37.670;2023-04-06T00:26:21;6.53;;;3.78;;
34200;SDS011;20469;55.638;37.670;2023-04-06T00:28:50;6.85;;;4.43;;
34200;SDS011;20469;55.638;37.670;2023-04-06T00:31:19;8.88;;;4.13;;
34200;SDS011;20469;55.638;37.670;2023-04-06T00:33:47;6.32;;;3.95;;
34200;SDS011;20469;55.638;37.670;2023-04-06T00:36:15;4.93;;;4.10;;
34200;SDS011;20469;55.638;37.670;2023-04-06T00:38:42;7.15;;;4.47;;
34200;SDS011;20469;55.638;37.670;2023-04-06T00:41:10;5.18;;;3.90;;
34200;SDS011;20469;55.638;37.670;2023-04-06T00:43:38;5.70;;;3.92;;
34200;SDS011;20469;55.638;37.670;2023-04-06T00:46:06;9.35;;;4.25;;
34200;SDS011;20469;55.638;37.670;2023-04-06T00:48:36;7.30;;;4.30;;
34200;SDS011;20469;55.638;37.670;2023-04-06T00:51:04;5.38;;;3.60;;
34200;SDS011;20469;55.638;37.670;2023-04-06T00:53:31;6.63;;;4.28;;
34200;SDS011;20469;55.638;37.670;2023-04-06T00:55:59;4.75;;;3.65;;
34200;SDS011;20469;55.638;37.670;2023-04-06T00:58:26;6.13;;;4.50;;
34200;SDS011;20469;55.638;37.670;2023-04-06T01:00:54;8.77;;;4.35;;
34200;SDS011;20469;55.638;37.670;2023-04-06T01:03:22;8.82;;;4.38;;
34200;SDS011;20469;55.638;37.670;2023-04-06T01:05:49;8.13;;;5.00;;
34200;SDS011;20469;55.638;37.670;2023-04-06T01:08:22;6.47;;;4.63;;
34200;SDS011;20469;55.638;37.670;2023-04-06T01:10:50;5.28;;;4.00;;
34200;SDS011;20469;55.638;37.670;2023-04-06T01:13:17;6.18;;;4.40;;
34200;SDS011;20469;55.638;37.670;2023-04-06T01:15:45;7.80;;;4.50;;
34200;SDS011;20469;55.638;37.670;2023-04-06T01:18:13;7.00;;;4.47;;
34200;SDS011;20469;55.638;37.670;2023-04-06T01:20:42;8.43;;;4.72;;
34200;SDS011;20469;55.638;37.670;2023-04-06T01:23:09;6.78;;;4.53;;
34200;SDS011;20469;55.638;37.670;2023-04-06T01:25:37;8.13;;;4.85;;
34200;SDS011;20469;55.638;37.670;2023-04-06T01:28:04;5.00;;;3.80;;
34200;SDS011;20469;55.638;37.670;2023-04-06T01:30:32;5.43;;;4.13;;
34200;SDS011;20469;55.638;37.670;2023-04-06T01:33:00;6.85;;;4.63;;
34200;SDS011;20469;55.638;37.670;2023-04-06T01:35:28;8.27;;;4.53;;
34200;SDS011;20469;55.638;37.670;2023-04-06T01:37:56;8.43;;;4.45;;
34200;SDS011;20469;55.638;37.670;2023-04-06T01:40:24;7.88;;;4.75;;
34200;SDS011;20469;55.638;37.670;2023-04-06T01:42:52;8.48;;;4.65;;
34200;SDS011;20469;55.638;37.670;2023-04-06T01:45:19;9.07;;;4.80;;
34200;SDS011;20469;55.638;37.670;2023-04-06T01:47:47;7.18;;;4.82;;
34200;SDS011;20469;55.638;37.670;2023-04-06T01:50:15;8.43;;;4.90;;
34200;SDS011;20469;55.638;37.670;2023-04-06T01:52:42;6.97;;;5.00;;
34200;SDS011;20469;55.638;37.670;2023-04-06T01:55:10;6.68;;;5.00;;
34200;SDS011;20469;55.638;37.670;2023-04-06T01:57:40;9.63;;;5.18;;
34200;SDS011;20469;55.638;37.670;2023-04-06T02:00:08;7.97;;;4.43;;
34200;SDS011;20469;55.638;37.670;2023-04-06T02:02:36;9.93;;;5.53;;
34200;SDS011;20469;55.638;37.670;2023-04-06T02:05:04;8.50;;;5.25;;
34200;SDS011;20469;55.638;37.670;2023-04-06T02:07:32;7.38;;;5.00;;
34200;SDS011;20469;55.638;37.670;2023-04-06T02:09:59;8.27;;;5.20;;
34200;SDS011;20469;55.638;37.670;2023-04-06T02:12:28;8.45;;;4.75;;
34200;SDS011;20469;55.638;37.670;2023-04-06T02:14:55;10.68;;;5.63;;
34200;SDS011;20469;55.638;37.670;2023-04-06T02:17:23;6.93;;;5.18;;
34200;SDS011;20469;55.638;37.670;2023-04-06T02:19:51;13.52;;;5.78;;
34200;SDS011;20469;55.638;37.670;2023-04-06T02:22:18;10.95;;;5.68;;
34200;SDS011;20469;55.638;37.670;2023-04-06T02:24:46;7.15;;;5.05;;
34200;SDS011;20469;55.638;37.670;2023-04-06T02:27:14;8.38;;;5.25;;
34200;SDS011;20469;55.638;37.670;2023-04-06T02:29:42;7.20;;;5.05;;
34200;SDS011;20469;55.638;37.670;2023-04-06T02:32:09;7.05;;;4.90;;
34200;SDS011;20469;55.638;37.670;2023-04-06T02:34:37;8.82;;;5.47;;
34200;SDS011;20469;55.638;37.670;2023-04-06T02:37:04;9.93;;;5.15;;
34200;SDS011;20469;55.638;37.670;2023-04-06T02:39:32;6.85;;;5.30;;
34200;SDS011;20469;55.638;37.670;2023-04-06T02:41:59;7.18;;;5.07;;
34200;SDS011;20469;55.638;37.670;2023-04-06T02:44:27;9.40;;;5.47;;
34200;SDS011;20469;55.638;37.670;2023-04-06T02:46:55;8.98;;;5.10;;
34200;SDS011;20469;55.638;37.670;2023-04-06T02:49:22;7.40;;;5.25;;
34200;SDS011;20469;55.638;37.670;2023-04-06T02:51:50;8.23;;;5.15;;
34200;SDS011;20469;55.638;37.670;2023-04-06T02:54:17;7.72;;;5.00;;
34200;SDS011;20469;55.638;37.670;2023-04-06T02:56:45;7.45;;;4.68;;
34200;SDS011;20469;55.638;37.670;2023-04-06T02:59:12;6.03;;;4.40;;
34200;SDS011;20469;55.638;37.670;2023-04-06T03:01:40;8.75;;;4.80;;
34200;SDS011;20469;55.638;37.670;2023-04-06T03:04:08;7.47;;;4.43;;
34200;SDS011;20469;55.638;37.670;2023-04-06T03:06:35;6.32;;;4.57;;
34200;SDS011;20469;55.638;37.670;2023-04-06T03:09:03;9.05;;;5.10;;
34200;SDS011;20469;55.638;37.670;2023-04-06T03:11:31;7.28;;;4.70;;
34200;SDS011;20469;55.638;37.670;2023-04-06T03:13:59;8.05;;;4.57;;
34200;SDS011;20469;55.638;37.670;2023-04-06T03:16:26;8.43;;;4.50;;
34200;SDS011;20469;55.638;37.670;2023-04-06T03:18:54;9.30;;;4.47;;
34200;SDS011;20469;55.638;37.670;2023-04-06T03:21:22;8.27;;;4.90;;
34200;SDS011;20469;55.638;37.670;2023-04-06T03:23:49;6.32;;;4.40;;
34200;SDS011;20469;55.638;37.670;2023-04-06T03:26:17;7.80;;;4.47;;
34200;SDS011;20469;55.638;37.670;2023-04-06T03:28:45;7.60;;;4.50;;
34200;SDS011;20469;55.638;37.670;2023-04-06T03:31:12;7.47;;;4.68;;
34200;SDS011;20469;55.638;37.670;2023-04-06T03:33:40;7.15;;;4.35;;
34200;SDS011;20469;55.638;37.670;2023-04-06T03:36:08;9.52;;;4.25;;
34200;SDS011;20469;55.638;37.670;2023-04-06T03:38:35;6.25;;;4.43;;
34200;SDS011;20469;55.638;37.670;2023-04-06T03:41:06;6.47;;;5.10;;
34200;SDS011;20469;55.638;37.670;2023-04-06T03:43:33;11.07;;;4.80;;
34200;SDS011;20469;55.638;37.670;2023-04-06T03:46:01;9.98;;;4.38;;
34200;SDS011;20469;55.638;37.670;2023-04-06T03:48:29;8.10;;;4.45;;
34200;SDS011;20469;55.638;37.670;2023-04-06T03:50:56;7.47;;;4.22;;
34200;SDS011;20469;55.638;37.670;2023-04-06T03:53:24;4.60;;;3.97;;
34200;SDS011;20469;55.638;37.670;2023-04-06T03:55:51;9.80;;;4.47;;
34200;SDS011;20469;55.638;37.670;2023-04-06T03:58:19;6.25;;;4.13;;
34200;SDS011;20469;55.638;37.670;2023-04-06T04:00:46;11.45;;;4.22;;
34200;SDS011;20469;55.638;37.670;2023-04-06T04:03:14;8.18;;;3.88;;
34200;SDS011;20469;55.638;37.670;2023-04-06T04:05:42;6.68;;;3.70;;
34200;SDS011;20469;55.638;37.670;2023-04-06T04:08:10;9.00;;;4.07;;
34200;SDS011;20469;55.638;37.670;2023-04-06T04:10:37;11.20;;;4.22;;
34200;SDS011;20469;55.638;37.670;2023-04-06T04:13:05;11.02;;;3.80;;
34200;SDS011;20469;55.638;37.670;2023-04-06T04:15:33;7.70;;;3.50;;
34200;SDS011;20469;55.638;37.670;2023-04-06T04:18:03;8.30;;;3.80;;
34200;SDS011;20469;55.638;37.670;2023-04-06T04:20:30;7.72;;;3.78;;
34200;SDS011;20469;55.638;37.670;2023-04-06T04:22:58;5.53;;;3.83;;
34200;SDS011;20469;55.638;37.670;2023-04-06T04:25:25;6.63;;;4.13;;
34200;SDS011;20469;55.638;37.670;2023-04-06T04:27:53;5.13;;;3.80;;
34200;SDS011;20469;55.638;37.670;2023-04-06T04:30:21;7.05;;;3.80;;
34200;SDS011;20469;55.638;37.670;2023-04-06T04:32:49;7.63;;;3.90;;
34200;SDS011;20469;55.638;37.670;2023-04-06T04:35:16;7.88;;;3.85;;
34200;SDS011;20469;55.638;37.670;2023-04-06T04:37:44;8.77;;;4.25;;
34200;SDS011;20469;55.638;37.670;2023-04-06T04:40:12;12.55;;;3.78;;
34200;SDS011;20469;55.638;37.670;2023-04-06T04:42:39;7.00;;;3.42;;
34200;SDS011;20469;55.638;37.670;2023-04-06T04:45:07;6.75;;;3.80;;
34200;SDS011;20469;55.638;37.670;2023-04-06T04:47:35;8.77;;;3.53;;
34200;SDS011;20469;55.638;37.670;2023-04-06T04:50:02;11.27;;;4.13;;
34200;SDS011;20469;55.638;37.670;2023-04-06T04:52:30;8.60;;;4.07;;
34200;SDS011;20469;55.638;37.670;2023-04-06T04:54:58;7.95;;;3.92;;
34200;SDS011;20469;55.638;37.670;2023-04-06T04:57:25;9.13;;;3.97;;
34200;SDS011;20469;55.638;37.670;2023-04-06T04:59:53;5.15;;;3.20;;
34200;SDS011;20469;55.638;37.670;2023-04-06T05:02:23;6.55;;;3.72;;
34200;SDS011;20469;55.638;37.670;2023-04-06T05:04:51;10.57;;;4.43;;
34200;SDS011;20469;55.638;37.670;2023-04-06T05:07:18;5.68;;;3.80;;
34200;SDS011;20469;55.638;37.670;2023-04-06T05:09:47;6.63;;;3.75;;
34200;SDS011;20469;55.638;37.670;2023-04-06T05:12:15;8.35;;;3.88;;
34200;SDS011;20469;55.638;37.670;2023-04-06T05:14:42;8.50;;;3.95;;
34200;SDS011;20469;55.638;37.670;2023-04-06T05:17:10;8.65;;;3.70;;
34200;SDS011;20469;55.638;37.670;2023-04-06T05:19:37;8.98;;;4.00;;
34200;SDS011;20469;55.638;37.670;2023-04-06T05:22:05;6.50;;;3.45;;
34200;SDS011;20469;55.638;37.670;2023-04-06T05:24:33;6.75;;;3.30;;
34200;SDS011;20469;55.638;37.670;2023-04-06T05:27:01;8.57;;;3.90;;
34200;SDS011;20469;55.638;37.670;2023-04-06T05:29:29;10.85;;;4.07;;
34200;SDS011;20469;55.638;37.670;2023-04-06T05:31:57;9.43;;;3.53;;
34200;SDS011;20469;55.638;37.670;2023-04-06T05:34:24;7.65;;;3.78;;
34200;SDS011;20469;55.638;37.670;2023-04-06T05:36:52;8.75;;;3.42;;
34200;SDS011;20469;55.638;37.670;2023-04-06T05:39:20;7.20;;;3.85;;
34200;SDS011;20469;55.638;37.670;2023-04-06T05:41:48;6.93;;;4.10;;
34200;SDS011;20469;55.638;37.670;2023-04-06T05:44:16;7.35;;;3.85;;
34200;SDS011;20469;55.638;37.670;2023-04-06T05:46:44;6.57;;;3.47;;
34200;SDS011;20469;55.638;37.670;2023-04-06T05:49:11;6.22;;;3.58;;
34200;SDS011;20469;55.638;37.670;2023-04-06T05:51:39;8.25;;;3.72;;
34200;SDS011;20469;55.638;37.670;2023-04-06T05:54:07;5.07;;;3.72;;
34200;SDS011;20469;55.638;37.670;2023-04-06T05:56:34;6.93;;;3.65;;
34200;SDS011;20469;55.638;37.670;2023-04-06T05:59:02;7.60;;;3.95;;
34200;SDS011;20469;55.638;37.670;2023-04-06T06:01:30;7.80;;;4.15;;
34200;SDS011;20469;55.638;37.670;2023-04-06T06:03:57;6.57;;;3.55;;
34200;SDS011;20469;55.638;37.670;2023-04-06T06:06:27;9.30;;;3.90;;
34200;SDS011;20469;55.638;37.670;2023-04-06T06:08:56;8.57;;;3.42;;
34200;SDS011;20469;55.638;37.670;2023-04-06T06:11:27;6.90;;;3.47;;
34200;SDS011;20469;55.638;37.670;2023-04-06T06:13:55;10.25;;;3.95;;
34200;SDS011;20469;55.638;37.670;2023-04-06T06:16:23;10.25;;;3.80;;
34200;SDS011;20469;55.638;37.670;2023-04-06T06:18:50;8.50;;;3.65;;
34200;SDS011;20469;55.638;37.670;2023-04-06T06:21:18;12.30;;;3.92;;
34200;SDS011;20469;55.638;37.670;2023-04-06T06:23:46;8.55;;;3.80;;
34200;SDS011;20469;55.638;37.670;2023-04-06T06:26:15;8.55;;;4.20;;
34200;SDS011;20469;55.638;37.670;2023-04-06T06:28:43;6.40;;;3.63;;
34200;SDS011;20469;55.638;37.670;2023-04-06T06:31:10;5.35;;;4.28;;
34200;SDS011;20469;55.638;37.670;2023-04-06T06:33:38;12.13;;;3.72;;
34200;SDS011;20469;55.638;37.670;2023-04-06T06:36:06;11.85;;;4.75;;
34200;SDS011;20469;55.638;37.670;2023-04-06T06:38:33;10.65;;;4.07;;
34200;SDS011;20469;55.638;37.670;2023-04-06T06:41:01;7.85;;;3.90;;
34200;SDS011;20469;55.638;37.670;2023-04-06T06:43:29;10.20;;;3.97;;
34200;SDS011;20469;55.638;37.670;2023-04-06T06:45:56;9.10;;;3.85;;
34200;SDS011;20469;55.638;37.670;2023-04-06T06:48:25;9.77;;;4.22;;
34200;SDS011;20469;55.638;37.670;2023-04-06T06:50:53;12.10;;;4.20;;
34200;SDS011;20469;55.638;37.670;2023-04-06T06:53:21;11.05;;;4.43;;
34200;SDS011;20469;55.638;37.670;2023-04-06T06:55:49;8.48;;;3.90;;
34200;SDS011;20469;55.638;37.670;2023-04-06T06:58:17;7.93;;;4.00;;
34200;SDS011;20469;55.638;37.670;2023-04-06T07:00:46;10.80;;;3.75;;
34200;SDS011;20469;55.638;37.670;2023-04-06T07:03:14;8.63;;;3.85;;
34200;SDS011;20469;55.638;37.670;2023-04-06T07:05:45;10.88;;;3.88;;
34200;SDS011;20469;55.638;37.670;2023-04-06T07:08:16;8.95;;;3.53;;
34200;SDS011;20469;55.638;37.670;2023-04-06T07:10:44;11.60;;;3.80;;
34200;SDS011;20469;55.638;37.670;2023-04-06T07:13:12;12.20;;;3.88;;
34200;SDS011;20469;55.638;37.670;2023-04-06T07:15:45;8.32;;;3.80;;
34200;SDS011;20469;55.638;37.670;2023-04-06T07:18:13;8.75;;;3.70;;
34200;SDS011;20469;55.638;37.670;2023-04-06T07:20:41;11.43;;;3.53;;
34200;SDS011;20469;55.638;37.670;2023-04-06T07:23:08;9.13;;;3.60;;
34200;SDS011;20469;55.638;37.670;2023-04-06T07:25:36;8.13;;;3.15;;
34200;SDS011;20469;55.638;37.670;2023-04-06T07:28:07;12.88;;;3.45;;
34200;SDS011;20469;55.638;37.670;2023-04-06T07:30:34;8.82;;;3.58;;
34200;SDS011;20469;55.638;37.670;2023-04-06T07:33:03;10.85;;;3.40;;
34200;SDS011;20469;55.638;37.670;2023-04-06T07:35:32;10.73;;;3.38;;
34200;SDS011;20469;55.638;37.670;2023-04-06T07:38:00;9.70;;;3.53;;
34200;SDS011;20469;55.638;37.670;2023-04-06T07:40:28;7.78;;;3.25;;
34200;SDS011;20469;55.638;37.670;2023-04-06T07:42:56;6.65;;;3.60;;
34200;SDS011;20469;55.638;37.670;2023-04-06T07:45:24;6.30;;;3.15;;
34200;SDS011;20469;55.638;37.670;2023-04-06T07:47:51;11.07;;;3.75;;
34200;SDS011;20469;55.638;37.670;2023-04-06T07:50:19;11.90;;;3.42;;
34200;SDS011;20469;55.638;37.670;2023-04-06T07:52:47;8.05;;;3.30;;
34200;SDS011;20469;55.638;37.670;2023-04-06T07:55:14;12.15;;;3.25;;
34200;SDS011;20469;55.638;37.670;2023-04-06T07:57:42;11.02;;;3.17;;
34200;SDS011;20469;55.638;37.670;2023-04-06T08:00:10;12.45;;;3.20;;
34200;SDS011;20469;55.638;37.670;2023-04-06T08:02:38;10.90;;;3.60;;
34200;SDS011;20469;55.638;37.670;2023-04-06T08:05:06;12.15;;;3.83;;
34200;SDS011;20469;55.638;37.670;2023-04-06T08:07:34;8.18;;;3.25;;
34200;SDS011;20469;55.638;37.670;2023-04-06T08:10:02;11.07;;;3.45;;
34200;SDS011;20469;55.638;37.670;2023-04-06T08:12:31;10.40;;;3.60;;
34200;SDS011;20469;55.638;37.670;2023-04-06T08:14:59;7.57;;;3.22;;
34200;SDS011;20469;55.638;37.670;2023-04-06T08:17:29;7.13;;;2.92;;
34200;SDS011;20469;55.638;37.670;2023-04-06T08:19:58;8.85;;;3.20;;
34200;SDS011;20469;55.638;37.670;2023-04-06T08:22:25;8.65;;;3.25;;
34200;SDS011;20469;55.638;37.670;2023-04-06T08:24:53;9.88;;;3.10;;
34200;SDS011;20469;55.638;37.670;2023-04-06T08:27:20;6.57;;;2.90;;
34200;SDS011;20469;55.638;37.670;2023-04-06T08:29:48;6.68;;;3.15;;
34200;SDS011;20469;55.638;37.670;2023-04-06T08:32:16;15.73;;;3.33;;
34200;SDS011;20469;55.638;37.670;2023-04-06T08:34:44;5.90;;;3.08;;
34200;SDS011;20469;55.638;37.670;2023-04-06T08:37:12;8.77;;;2.50;;
34200;SDS011;20469;55.638;37.670;2023-04-06T08:39:39;9.77;;;2.92;;
34200;SDS011;20469;55.638;37.670;2023-04-06T08:42:10;12.00;;;3.10;;
34200;SDS011;20469;55.638;37.670;2023-04-06T08:44:46;11.88;;;3.10;;
34200;SDS011;20469;55.638;37.670;2023-04-06T08:47:20;8.57;;;2.65;;
34200;SDS011;20469;55.638;37.670;2023-04-06T08:49:50;8.90;;;2.70;;
34200;SDS011;20469;55.638;37.670;2023-04-06T08:52:19;15.85;;;2.97;;
34200;SDS011;20469;55.638;37.670;2023-04-06T08:54:47;14.52;;;3.00;;
34200;SDS011;20469;55.638;37.670;2023-04-06T08:57:15;10.60;;;2.88;;
34200;SDS011;20469;55.638;37.670;2023-04-06T08:59:44;4.75;;;2.67;;
34200;SDS011;20469;55.638;37.670;2023-04-06T09:02:14;9.45;;;2.75;;
34200;SDS011;20469;55.638;37.670;2023-04-06T09:04:48;8.75;;;2.88;;
34200;SDS011;20469;55.638;37.670;2023-04-06T09:07:19;16.40;;;3.10;;
34200;SDS011;20469;55.638;37.670;2023-04-06T09:09:48;8.63;;;2.60;;
34200;SDS011;20469;55.638;37.670;2023-04-06T09:12:22;13.27;;;3.00;;
34200;SDS011;20469;55.638;37.670;2023-04-06T09:14:50;12.73;;;3.25;;
34200;SDS011;20469;55.638;37.670;2023-04-06T09:17:22;5.97;;;2.60;;
34200;SDS011;20469;55.638;37.670;2023-04-06T09:19:51;8.40;;;2.60;;
34200;SDS011;20469;55.638;37.670;2023-04-06T09:22:19;12.95;;;2.80;;
34200;SDS011;20469;55.638;37.670;2023-04-06T09:24:51;9.63;;;2.70;;
34200;SDS011;20469;55.638;37.670;2023-04-06T09:27:29;7.78;;;2.80;;
34200;SDS011;20469;55.638;37.670;2023-04-06T09:32:46;12.30;;;3.00;;
34200;SDS011;20469;55.638;37.670;2023-04-06T09:35:18;12.23;;;3.00;;
34200;SDS011;20469;55.638;37.670;2023-04-06T09:37:50;14.02;;;2.90;;
34200;SDS011;20469;55.638;37.670;2023-04-06T09:40:22;12.00;;;3.25;;
34200;SDS011;20469;55.638;37.670;2023-04-06T09:42:49;10.00;;;2.70;;
34200;SDS011;20469;55.638;37.670;2023-04-06T09:45:19;9.25;;;2.88;;
34200;SDS011;20469;55.638;37.670;2023-04-06T09:47:47;13.70;;;2.80;;
34200;SDS011;20469;55.638;37.670;2023-04-06T09:50:18;16.60;;;3.10;;
34200;SDS011;20469;55.638;37.670;2023-04-06T09:52:47;12.10;;;2.88;;
34200;SDS011;20469;55.638;37.670;2023-04-06T09:55:22;15.57;;;3.05;;
34200;SDS011;20469;55.638;37.670;2023-04-06T09:58:03;8.73;;;2.88;;
34200;SDS011;20469;55.638;37.670;2023-04-06T10:00:35;11.32;;;3.10;;
34200;SDS011;20469;55.638;37.670;2023-04-06T10:05:57;9.65;;;3.20;;
34200;SDS011;20469;55.638;37.670;2023-04-06T10:08:32;6.43;;;2.70;;
34200;SDS011;20469;55.638;37.670;2023-04-06T10:11:02;8.98;;;2.70;;
34200;SDS011;20469;55.638;37.670;2023-04-06T10:13:30;13.77;;;2.92;;
34200;SDS011;20469;55.638;37.670;2023-04-06T10:15:57;11.98;;;3.40;;
34200;SDS011;20469;55.638;37.670;2023-04-06T10:18:28;10.20;;;2.92;;
34200;SDS011;20469;55.638;37.670;2023-04-06T10:20:57;12.20;;;3.03;;
34200;SDS011;20469;55.638;37.670;2023-04-06T10:23:43;12.13;;;2.60;;
34200;SDS011;20469;55.638;37.670;2023-04-06T10:26:15;8.63;;;3.00;;
34200;SDS011;20469;55.638;37.670;2023-04-06T10:28:45;12.43;;;2.78;;
34200;SDS011;20469;55.638;37.670;2023-04-06T10:31:13;7.07;;;2.97;;
34200;SDS011;20469;55.638;37.670;2023-04-06T10:33:41;9.02;;;3.03;;
34200;SDS011;20469;55.638;37.670;2023-04-06T10:36:32;11.02;;;3.05;;
34200;SDS011;20469;55.638;37.670;2023-04-06T10:39:02;10.13;;;2.75;;
34200;SDS011;20469;55.638;37.670;2023-04-06T10:41:35;11.63;;;2.67;;
34200;SDS011;20469;55.638;37.670;2023-04-06T10:44:07;15.35;;;3.35;;
34200;SDS011;20469;55.638;37.670;2023-04-06T10:46:52;5.65;;;2.63;;
34200;SDS011;20469;55.638;37.670;2023-04-06T10:49:21;8.88;;;2.60;;
34200;SDS011;20469;55.638;37.670;2023-04-06T10:51:55;8.02;;;2.40;;
34200;SDS011;20469;55.638;37.670;2023-04-06T10:54:24;5.25;;;2.38;;
34200;SDS011;20469;55.638;37.670;2023-04-06T10:56:52;17.00;;;3.10;;
34200;SDS011;20469;55.638;37.670;2023-04-06T10:59:20;10.57;;;2.92;;
34200;SDS011;20469;55.638;37.670;2023-04-06T11:01:48;7.13;;;2.70;;
34200;SDS011;20469;55.638;37.670;2023-04-06T11:04:16;9.38;;;3.17;;
34200;SDS011;20469;55.638;37.670;2023-04-06T11:06:49;11.80;;;2.85;;
34200;SDS011;20469;55.638;37.670;2023-04-06T11:09:27;11.88;;;2.75;;
34200;SDS011;20469;55.638;37.670;2023-04-06T11:11:56;8.73;;;2.47;;
34200;SDS011;20469;55.638;37.670;2023-04-06T11:14:23;9.23;;;2.55;;
34200;SDS011;20469;55.638;37.670;2023-04-06T11:16:53;9.73;;;2.60;;
34200;SDS011;20469;55.638;37.670;2023-04-06T11:19:21;9.55;;;2.35;;
34200;SDS011;20469;55.638;37.670;2023-04-06T11:21:49;8.98;;;2.65;;
34200;SDS011;20469;55.638;37.670;2023-04-06T11:24:21;8.20;;;2.65;;
34200;SDS011;20469;55.638;37.670;2023-04-06T11:29:18;11.32;;;2.20;;
34200;SDS011;20469;55.638;37.670;2023-04-06T11:31:53;11.07;;;2.45;;
34200;SDS011;20469;55.638;37.670;2023-04-06T11:34:24;9.45;;;2.72;;
34200;SDS011;20469;55.638;37.670;2023-04-06T11:36:58;9.15;;;2.65;;
34200;SDS011;20469;55.638;37.670;2023-04-06T11:39:37;10.73;;;3.10;;
34200;SDS011;20469;55.638;37.670;2023-04-06T11:42:23;7.88;;;2.45;;
34200;SDS011;20469;55.638;37.670;2023-04-06T11:44:56;8.40;;;2.45;;
34200;SDS011;20469;55.638;37.670;2023-04-06T11:50:05;18.00;;;2.95;;
34200;SDS011;20469;55.638;37.670;2023-04-06T11:52:37;12.00;;;2.90;;
34200;SDS011;20469;55.638;37.670;2023-04-06T11:57:40;7.03;;;2.30;;
34200;SDS011;20469;55.638;37.670;2023-04-06T12:01:06;10.65;;;2.50;;
34200;SDS011;20469;55.638;37.670;2023-04-06T12:03:34;7.05;;;2.28;;
34200;SDS011;20469;55.638;37.670;2023-04-06T12:06:01;6.40;;;2.70;;
34200;SDS011;20469;55.638;37.670;2023-04-06T12:08:29;10.07;;;2.70;;
34200;SDS011;20469;55.638;37.670;2023-04-06T12:10:57;10.85;;;2.60;;
34200;SDS011;20469;55.638;37.670;2023-04-06T12:13:26;8.80;;;2.47;;
34200;SDS011;20469;55.638;37.670;2023-04-06T12:15:54;5.13;;;2.20;;
34200;SDS011;20469;55.638;37.670;2023-04-06T12:18:21;6.35;;;2.17;;
34200;SDS011;20469;55.638;37.670;2023-04-06T12:20:49;9.30;;;2.58;;
34200;SDS011;20469;55.638;37.670;2023-04-06T12:23:18;10.40;;;2.45;;
34200;SDS011;20469;55.638;37.670;2023-04-06T12:25:47;11.30;;;2.50;;
34200;SDS011;20469;55.638;37.670;2023-04-06T12:28:14;7.93;;;2.42;;
34200;SDS011;20469;55.638;37.670;2023-04-06T12:30:42;11.35;;;2.47;;
34200;SDS011;20469;55.638;37.670;2023-04-06T12:33:10;9.40;;;2.45;;
34200;SDS011;20469;55.638;37.670;2023-04-06T12:35:37;8.07;;;2.75;;
34200;SDS011;20469;55.638;37.670;2023-04-06T12:38:05;9.68;;;2.45;;
34200;SDS011;20469;55.638;37.670;2023-04-06T12:40:36;5.82;;;2.40;;
34200;SDS011;20469;55.638;37.670;2023-04-06T12:43:05;9.57;;;2.70;;
34200;SDS011;20469;55.638;37.670;2023-04-06T12:45:32;8.93;;;2.42;;
34200;SDS011;20469;55.638;37.670;2023-04-06T12:48:00;14.48;;;2.78;;
34200;SDS011;20469;55.638;37.670;2023-04-06T12:50:28;10.40;;;2.70;;
34200;SDS011;20469;55.638;37.670;2023-04-06T12:52:56;9.02;;;2.97;;
34200;SDS011;20469;55.638;37.670;2023-04-06T12:55:26;7.03;;;2.50;;
34200;SDS011;20469;55.638;37.670;2023-04-06T12:57:56;7.30;;;2.13;;
34200;SDS011;20469;55.638;37.670;2023-04-06T13:00:25;13.45;;;2.40;;
34200;SDS011;20469;55.638;37.670;2023-04-06T13:02:53;8.10;;;2.47;;
34200;SDS011;20469;55.638;37.670;2023-04-06T13:05:21;6.45;;;2.05;;
34200;SDS011;20469;55.638;37.670;2023-04-06T13:07:48;8.45;;;2.53;;
34200;SDS011;20469;55.638;37.670;2023-04-06T13:10:18;7.55;;;2.47;;
34200;SDS011;20469;55.638;37.670;2023-04-06T13:12:46;6.32;;;2.38;;
34200;SDS011;20469;55.638;37.670;2023-04-06T13:15:16;7.20;;;2.60;;
34200;SDS011;20469;55.638;37.670;2023-04-06T13:17:44;9.45;;;2.40;;
34200;SDS011;20469;55.638;37.670;2023-04-06T13:20:12;12.25;;;3.17;;
34200;SDS011;20469;55.638;37.670;2023-04-06T13:22:40;7.43;;;2.63;;
34200;SDS011;20469;55.638;37.670;2023-04-06T13:25:07;11.90;;;2.67;;
34200;SDS011;20469;55.638;37.670;2023-04-06T13:27:35;10.68;;;2.70;;
34200;SDS011;20469;55.638;37.670;2023-04-06T13:30:03;6.95;;;2.10;;
34200;SDS011;20469;55.638;37.670;2023-04-06T13:32:32;3.90;;;2.00;;
34200;SDS011;20469;55.638;37.670;2023-04-06T13:34:59;6.22;;;2.50;;
34200;SDS011;20469;55.638;37.670;2023-04-06T13:37:29;5.80;;;2.25;;
34200;SDS011;20469;55.638;37.670;2023-04-06T13:39:56;12.70;;;2.60;;
34200;SDS011;20469;55.638;37.670;2023-04-06T13:42:24;5.60;;;2.15;;
34200;SDS011;20469;55.638;37.670;2023-04-06T13:44:54;8.23;;;2.03;;
34200;SDS011;20469;55.638;37.670;2023-04-06T13:47:22;6.63;;;2.00;;
34200;SDS011;20469;55.638;37.670;2023-04-06T13:49:50;8.00;;;2.00;;
34200;SDS011;20469;55.638;37.670;2023-04-06T13:52:20;8.80;;;2.20;;
34200;SDS011;20469;55.638;37.670;2023-04-06T13:54:48;10.07;;;2.70;;
34200;SDS011;20469;55.638;37.670;2023-04-06T13:57:16;7.25;;;2.30;;
34200;SDS011;20469;55.638;37.670;2023-04-06T13:59:44;4.28;;;2.00;;
34200;SDS011;20469;55.638;37.670;2023-04-06T14:02:16;12.75;;;2.40;;
34200;SDS011;20469;55.638;37.670;2023-04-06T14:04:47;9.63;;;2.35;;
34200;SDS011;20469;55.638;37.670;2023-04-06T14:07:14;5.05;;;1.88;;
34200;SDS011;20469;55.638;37.670;2023-04-06T14:09:42;3.70;;;1.90;;
34200;SDS011;20469;55.638;37.670;2023-04-06T14:12:10;9.05;;;2.38;;
34200;SDS011;20469;55.638;37.670;2023-04-06T14:14:38;4.70;;;2.10;;
34200;SDS011;20469;55.638;37.670;2023-04-06T14:17:06;7.57;;;2.13;;
34200;SDS011;20469;55.638;37.670;2023-04-06T14:19:33;7.25;;;2.17;;
34200;SDS011;20469;55.638;37.670;2023-04-06T14:22:02;6.35;;;2.30;;
34200;SDS011;20469;55.638;37.670;2023-04-06T14:24:30;7.28;;;1.98;;
34200;SDS011;20469;55.638;37.670;2023-04-06T14:26:58;5.95;;;2.17;;
34200;SDS011;20469;55.638;37.670;2023-04-06T14:29:27;7.40;;;2.22;;
34200;SDS011;20469;55.638;37.670;2023-04-06T14:31:58;9.23;;;2.22;;
34200;SDS011;20469;55.638;37.670;2023-04-06T14:34:26;8.10;;;2.22;;
34200;SDS011;20469;55.638;37.670;2023-04-06T14:36:54;5.53;;;1.98;;
34200;SDS011;20469;55.638;37.670;2023-04-06T14:39:22;8.68;;;2.20;;
34200;SDS011;20469;55.638;37.670;2023-04-06T14:41:49;4.93;;;2.17;;
34200;SDS011;20469;55.638;37.670;2023-04-06T14:44:24;8.55;;;2.08;;
34200;SDS011;20469;55.638;37.670;2023-04-06T14:46:54;6.75;;;2.10;;
34200;SDS011;20469;55.638;37.670;2023-04-06T14:49:24;7.35;;;2.08;;
34200;SDS011;20469;55.638;37.670;2023-04-06T14:51:53;6.20;;;1.85;;
34200;SDS011;20469;55.638;37.670;2023-04-06T14:54:21;8.48;;;1.83;;